sim
Sign-in with your pilot id or email,
or register
Callsign
Passwort

Schedule Details

Flight Number: DLH2123
Departure: Dresden Airport (EDDC) at 08:10
Arrival: Munich Airport (EDDM) at 09:05
Route: Lufthansa Passenger Schedule. Enter filed route here before submitting Pirep.

Weather Information
Getting current METAR information for EDDC 281150Z 10006KT 060V150 9999 FEW033 16/07 Q1011 NOSIG
Getting current METAR information for EDDM 281150Z 27004KT 240V300 9999 FEW010 BKN040 10/07 Q1012 NOSIG

Schedule Frequency

Route Map